createdAt,value
2018-05-07T00:00:07.971Z,2.63
2018-05-07T00:02:37.195Z,2.73
2018-05-07T00:05:05.623Z,3.37
2018-05-07T00:07:34.100Z,3.47
2018-05-07T00:10:03.287Z,3.30
2018-05-07T00:12:31.743Z,3.23
2018-05-07T00:15:00.248Z,3.90
2018-05-07T00:17:29.421Z,3.20
2018-05-07T00:19:57.869Z,3.40
2018-05-07T00:22:27.065Z,3.13
2018-05-07T00:24:55.529Z,3.83
2018-05-07T00:27:23.981Z,3.80
2018-05-07T00:29:53.186Z,3.27
2018-05-07T00:32:21.639Z,3.57
2018-05-07T00:34:50.067Z,3.03
2018-05-07T00:37:18.495Z,3.77
2018-05-07T00:39:46.964Z,3.47
2018-05-07T00:42:15.391Z,3.63
2018-05-07T00:44:43.837Z,3.53
2018-05-07T00:47:12.279Z,4.30
2018-05-07T00:49:40.698Z,3.50
2018-05-07T00:52:09.166Z,3.47
2018-05-07T00:54:55.826Z,3.80
2018-05-07T00:57:24.301Z,3.40
2018-05-07T00:59:52.756Z,3.63
2018-05-07T01:02:21.178Z,3.43
2018-05-07T01:04:49.621Z,3.10
2018-05-07T01:07:18.810Z,3.07
2018-05-07T01:09:47.279Z,3.90
2018-05-07T01:12:15.722Z,3.50
2018-05-07T01:14:44.160Z,3.80
2018-05-07T01:17:13.370Z,3.53
2018-05-07T01:19:41.812Z,3.40
2018-05-07T01:22:10.249Z,3.60
2018-05-07T01:24:38.656Z,3.70
2018-05-07T01:27:07.083Z,3.87
2018-05-07T01:29:35.554Z,3.93
2018-05-07T01:32:04.003Z,3.40
2018-05-07T01:34:32.491Z,3.50
2018-05-07T01:37:00.894Z,4.10
2018-05-07T01:39:29.322Z,2.97
2018-05-07T01:41:58.544Z,3.60
2018-05-07T01:44:28.540Z,3.30
2018-05-07T01:46:57.023Z,3.83
2018-05-07T01:49:25.459Z,4.10
2018-05-07T01:51:53.875Z,3.33
2018-05-07T01:54:22.329Z,3.70
2018-05-07T01:56:50.766Z,4.07
2018-05-07T01:59:19.200Z,4.03
2018-05-07T02:01:47.647Z,3.40
2018-05-07T02:04:16.093Z,3.30
2018-05-07T02:06:44.555Z,3.80
2018-05-07T02:09:13.036Z,3.70
2018-05-07T02:11:43.175Z,3.90
2018-05-07T02:14:11.642Z,3.70
2018-05-07T02:16:40.108Z,3.80
2018-05-07T02:19:08.553Z,4.10
2018-05-07T02:21:36.978Z,5.00
2018-05-07T02:24:05.494Z,4.70
2018-05-07T02:26:33.925Z,4.70
2018-05-07T02:29:03.127Z,4.27
2018-05-07T02:31:31.591Z,4.30
2018-05-07T02:34:00.025Z,4.27
2018-05-07T02:36:28.493Z,4.33
2018-05-07T02:38:56.998Z,4.70
2018-05-07T02:41:25.387Z,4.43
2018-05-07T02:43:53.828Z,4.90
2018-05-07T02:46:22.328Z,4.03
2018-05-07T02:48:50.792Z,4.73
2018-05-07T02:51:19.230Z,4.37
2018-05-07T02:53:47.661Z,4.10
2018-05-07T02:56:16.115Z,4.00
2018-05-07T02:58:44.597Z,3.83
2018-05-07T03:01:13.056Z,4.83
2018-05-07T03:03:41.461Z,4.30
2018-05-07T03:06:09.896Z,3.80
2018-05-07T03:08:38.333Z,5.37
2018-05-07T03:11:07.524Z,4.33
2018-05-07T03:13:35.977Z,4.47
2018-05-07T03:16:04.404Z,4.17
2018-05-07T03:18:32.854Z,4.60
2018-05-07T03:21:01.307Z,4.87
2018-05-07T03:23:29.719Z,4.97
2018-05-07T03:25:58.179Z,5.60
2018-05-07T03:28:27.382Z,4.90
2018-05-07T03:30:55.809Z,4.83
2018-05-07T03:33:24.263Z,5.60
2018-05-07T03:35:52.683Z,5.07
2018-05-07T03:38:21.166Z,5.07
2018-05-07T03:40:49.627Z,5.53
2018-05-07T03:43:18.086Z,4.83
2018-05-07T03:45:46.528Z,5.10
2018-05-07T03:48:15.713Z,5.63
2018-05-07T03:50:44.177Z,4.50
2018-05-07T03:53:13.364Z,5.10
2018-05-07T03:55:41.795Z,4.60
2018-05-07T03:58:11.007Z,5.07
2018-05-07T04:00:39.427Z,5.30
2018-05-07T04:03:08.632Z,5.47
2018-05-07T04:05:37.134Z,4.40
2018-05-07T04:08:05.583Z,5.30
2018-05-07T04:10:34.026Z,5.23
2018-05-07T04:13:02.481Z,5.87
2018-05-07T04:15:31.728Z,6.00
2018-05-07T04:18:17.683Z,5.40
2018-05-07T04:21:03.601Z,5.20
2018-05-07T04:23:49.529Z,5.73
2018-05-07T04:26:18.091Z,5.40
2018-05-07T04:28:46.517Z,5.10
2018-05-07T04:31:14.946Z,5.77
2018-05-07T04:33:43.417Z,5.67
2018-05-07T04:36:11.852Z,5.77
2018-05-07T04:38:40.317Z,5.40
2018-05-07T04:41:08.746Z,5.10
2018-05-07T04:43:37.233Z,5.07
2018-05-07T04:46:05.800Z,5.40
2018-05-07T04:48:35.064Z,5.07
2018-05-07T04:51:04.368Z,4.97
2018-05-07T04:53:32.799Z,5.07
2018-05-07T04:56:01.254Z,5.60
2018-05-07T04:58:29.690Z,5.50
2018-05-07T05:00:58.164Z,5.67
2018-05-07T05:03:26.576Z,6.10
2018-05-07T05:05:55.798Z,5.10
2018-05-07T05:08:24.980Z,6.03
2018-05-07T05:10:53.402Z,6.07
2018-05-07T05:13:21.872Z,6.00
2018-05-07T05:15:50.318Z,5.60
2018-05-07T05:18:18.808Z,5.50
2018-05-07T05:20:47.263Z,5.10
2018-05-07T05:23:15.696Z,6.57
2018-05-07T05:25:44.117Z,7.10
2018-05-07T05:28:12.592Z,6.90
2018-05-07T05:30:41.010Z,6.87
2018-05-07T05:33:09.431Z,6.63
2018-05-07T05:35:37.887Z,6.90
2018-05-07T05:38:06.326Z,6.90
2018-05-07T05:40:34.795Z,7.07
2018-05-07T05:43:03.981Z,6.70
2018-05-07T05:45:32.440Z,8.03
2018-05-07T05:48:00.867Z,7.50
2018-05-07T05:50:29.317Z,7.70
2018-05-07T05:52:58.528Z,8.03
2018-05-07T05:55:26.964Z,7.30
2018-05-07T05:57:56.190Z,8.20
2018-05-07T06:00:24.636Z,8.70
2018-05-07T06:02:53.083Z,7.50
2018-05-07T06:05:21.529Z,7.93
2018-05-07T06:07:49.992Z,7.13
2018-05-07T06:10:18.459Z,7.27
2018-05-07T06:12:46.893Z,7.63
2018-05-07T06:15:15.356Z,8.10
2018-05-07T06:17:44.250Z,9.23
2018-05-07T06:20:12.721Z,8.00
2018-05-07T06:22:41.138Z,7.40
2018-05-07T06:25:10.378Z,6.80
2018-05-07T06:27:38.815Z,6.33
2018-05-07T06:30:07.277Z,6.17
2018-05-07T06:32:36.472Z,5.80
2018-05-07T06:35:04.885Z,6.13
2018-05-07T06:37:34.127Z,5.90
2018-05-07T06:40:02.589Z,6.10
2018-05-07T06:42:31.058Z,5.43
2018-05-07T06:44:59.490Z,5.60
2018-05-07T06:47:27.956Z,5.30
2018-05-07T06:49:57.166Z,5.10
2018-05-07T06:52:26.373Z,5.10
2018-05-07T06:54:54.812Z,4.80
2018-05-07T06:57:23.239Z,5.20
2018-05-07T06:59:51.672Z,4.37
2018-05-07T07:02:20.446Z,5.00
2018-05-07T07:04:48.806Z,4.90
2018-05-07T07:07:17.217Z,4.17
2018-05-07T07:09:45.640Z,4.73
2018-05-07T07:12:14.865Z,4.83
2018-05-07T07:14:44.047Z,3.80
2018-05-07T07:17:12.480Z,4.40
2018-05-07T07:19:41.686Z,4.67
2018-05-07T07:22:10.967Z,4.40
2018-05-07T07:24:39.403Z,4.30
2018-05-07T07:27:07.862Z,5.10
2018-05-07T07:29:36.282Z,4.70
2018-05-07T07:32:04.735Z,3.93
2018-05-07T07:34:33.196Z,4.30
2018-05-07T07:37:01.614Z,3.70
2018-05-07T07:39:30.142Z,4.00
2018-05-07T07:41:58.550Z,3.73
2018-05-07T07:44:27.033Z,3.83
2018-05-07T07:46:55.439Z,4.10
2018-05-07T07:49:23.862Z,3.50
2018-05-07T07:51:52.320Z,3.93
2018-05-07T07:54:20.761Z,3.40
2018-05-07T07:56:49.250Z,3.57
2018-05-07T07:59:17.701Z,3.60
2018-05-07T08:01:46.962Z,3.07
2018-05-07T08:04:15.496Z,3.23
2018-05-07T08:06:44.670Z,3.03
2018-05-07T08:09:13.863Z,3.70
2018-05-07T08:11:43.238Z,2.93
2018-05-07T08:14:11.686Z,2.97
2018-05-07T08:16:40.175Z,3.23
2018-05-07T08:19:08.693Z,3.47
2018-05-07T08:21:37.143Z,3.30
2018-05-07T08:24:06.426Z,3.27
2018-05-07T08:26:34.848Z,2.90
2018-05-07T08:29:03.375Z,3.37
2018-05-07T08:31:32.605Z,3.10
2018-05-07T08:34:01.049Z,2.50
2018-05-07T08:36:29.521Z,3.20
2018-05-07T08:38:57.959Z,2.70
2018-05-07T08:41:26.407Z,3.17
2018-05-07T08:43:54.849Z,2.80
2018-05-07T08:46:23.307Z,2.63
2018-05-07T08:48:51.740Z,2.77
2018-05-07T08:51:20.933Z,2.30
2018-05-07T08:53:49.400Z,2.63
2018-05-07T08:56:17.868Z,3.10
2018-05-07T08:58:47.092Z,3.13
2018-05-07T09:01:15.524Z,3.07
2018-05-07T09:03:43.990Z,3.07
2018-05-07T09:06:12.432Z,3.00
2018-05-07T09:08:41.747Z,3.20
2018-05-07T09:11:10.242Z,3.57
2018-05-07T09:13:39.561Z,3.03
2018-05-07T09:16:07.969Z,4.00
2018-05-07T09:18:36.424Z,3.70
2018-05-07T09:21:04.919Z,3.53
2018-05-07T09:23:33.366Z,3.57
2018-05-07T09:26:01.868Z,3.10
2018-05-07T09:28:30.299Z,3.20
2018-05-07T09:30:58.760Z,3.47
2018-05-07T09:33:27.274Z,2.80
2018-05-07T09:35:55.753Z,2.83
2018-05-07T09:38:24.180Z,3.00
2018-05-07T09:40:52.657Z,3.20
2018-05-07T09:43:21.130Z,3.33
2018-05-07T09:45:49.562Z,3.00
2018-05-07T09:48:18.035Z,2.77
2018-05-07T09:50:46.492Z,3.10
2018-05-07T09:53:14.954Z,2.40
2018-05-07T09:55:43.433Z,3.20
2018-05-07T09:58:11.859Z,3.30
2018-05-07T10:00:40.353Z,2.90
2018-05-07T10:03:08.795Z,3.00
2018-05-07T10:05:37.283Z,3.33
2018-05-07T10:08:06.541Z,2.83
2018-05-07T10:10:35.021Z,3.67
2018-05-07T10:13:03.495Z,2.90
2018-05-07T10:15:31.978Z,3.33
2018-05-07T10:18:00.461Z,3.23
2018-05-07T10:20:28.907Z,3.43
2018-05-07T10:22:57.391Z,3.37
2018-05-07T10:25:25.841Z,3.13
2018-05-07T10:27:54.301Z,3.47
2018-05-07T10:30:22.819Z,3.00
2018-05-07T10:32:51.344Z,3.40
2018-05-07T10:35:19.848Z,3.30
2018-05-07T10:37:48.269Z,2.90
2018-05-07T10:40:16.735Z,3.07
2018-05-07T10:42:45.194Z,3.33
2018-05-07T10:45:13.661Z,2.93
2018-05-07T10:47:42.128Z,3.17
2018-05-07T10:50:10.604Z,3.10
2018-05-07T10:52:39.064Z,3.77
2018-05-07T10:55:07.529Z,3.67
2018-05-07T10:57:36.046Z,3.13
2018-05-07T11:00:04.509Z,3.00
2018-05-07T11:02:32.969Z,2.90
2018-05-07T11:05:01.398Z,3.40
2018-05-07T11:07:29.885Z,3.63
2018-05-07T11:09:58.325Z,3.00
2018-05-07T11:12:26.793Z,3.67
2018-05-07T11:14:55.222Z,3.53
2018-05-07T11:17:23.670Z,2.90
2018-05-07T11:19:52.108Z,2.77
2018-05-07T11:22:20.546Z,2.60
2018-05-07T11:24:48.998Z,2.90
2018-05-07T11:27:18.231Z,2.60
2018-05-07T11:29:46.714Z,2.87
2018-05-07T11:32:15.151Z,3.53
2018-05-07T11:34:43.641Z,2.50
2018-05-07T11:37:12.861Z,3.33
2018-05-07T11:39:41.291Z,3.30
2018-05-07T11:42:09.797Z,2.80
2018-05-07T11:44:38.252Z,2.83
2018-05-07T11:47:06.751Z,2.60
2018-05-07T11:49:35.216Z,2.50
2018-05-07T11:52:03.683Z,3.20
2018-05-07T11:54:32.138Z,2.80
2018-05-07T11:57:00.628Z,2.57
2018-05-07T11:59:29.097Z,3.00
2018-05-07T12:01:57.518Z,2.40
2018-05-07T12:04:25.963Z,3.20
2018-05-07T12:06:54.447Z,3.00
2018-05-07T12:09:23.113Z,2.40
2018-05-07T12:11:51.569Z,2.40
2018-05-07T12:14:19.988Z,2.53
2018-05-07T12:16:48.453Z,2.30
2018-05-07T12:19:16.881Z,2.17
2018-05-07T12:21:45.343Z,2.50
2018-05-07T12:24:13.793Z,3.20
2018-05-07T12:26:42.273Z,2.80
2018-05-07T12:29:11.544Z,2.83
2018-05-07T12:31:40.063Z,2.50
2018-05-07T12:34:08.519Z,2.70
2018-05-07T12:36:37.006Z,3.00
2018-05-07T12:39:05.565Z,2.47
2018-05-07T12:41:34.021Z,2.50
2018-05-07T12:44:02.485Z,2.40
2018-05-07T12:46:30.942Z,2.50
2018-05-07T12:49:00.176Z,2.40
2018-05-07T12:51:28.639Z,2.50
2018-05-07T12:53:57.080Z,2.70
2018-05-07T12:56:27.261Z,2.80
2018-05-07T12:58:57.725Z,3.00
2018-05-07T13:01:26.208Z,2.33
2018-05-07T13:03:54.679Z,2.50
2018-05-07T13:06:23.168Z,2.50
2018-05-07T13:08:51.604Z,2.50
2018-05-07T13:11:20.071Z,2.90
2018-05-07T13:13:48.520Z,2.93
2018-05-07T13:16:16.942Z,2.60
2018-05-07T13:18:45.481Z,2.50
2018-05-07T13:21:14.952Z,2.67
2018-05-07T13:23:43.441Z,2.67
2018-05-07T13:26:11.870Z,2.70
2018-05-07T13:28:41.083Z,2.63
2018-05-07T13:31:09.560Z,2.80
2018-05-07T13:33:38.036Z,2.70
2018-05-07T13:36:06.489Z,2.23
2018-05-07T13:38:34.946Z,2.30
2018-05-07T13:41:03.398Z,2.33
2018-05-07T13:43:31.819Z,2.30
2018-05-07T13:46:01.963Z,2.13
2018-05-07T13:48:31.140Z,2.50
2018-05-07T13:51:03.169Z,2.43
2018-05-07T13:53:31.593Z,2.27
2018-05-07T13:56:00.044Z,2.20
2018-05-07T13:58:28.541Z,2.80
2018-05-07T14:00:56.974Z,2.40
2018-05-07T14:03:25.451Z,2.40
2018-05-07T14:05:53.883Z,2.37
2018-05-07T14:08:22.452Z,2.20
2018-05-07T14:10:52.845Z,2.40
2018-05-07T14:13:21.306Z,2.50
2018-05-07T14:15:49.751Z,2.57
2018-05-07T14:18:18.175Z,2.97
2018-05-07T14:20:46.611Z,2.37
2018-05-07T14:23:15.019Z,2.37
2018-05-07T14:25:43.489Z,2.40
2018-05-07T14:28:12.694Z,2.60
2018-05-07T14:30:41.172Z,2.97
2018-05-07T14:33:09.630Z,2.10
2018-05-07T14:35:38.099Z,2.70
2018-05-07T14:38:06.529Z,2.13
2018-05-07T14:40:34.962Z,2.27
2018-05-07T14:43:03.453Z,2.50
2018-05-07T14:45:32.664Z,2.27
2018-05-07T14:48:01.184Z,2.57
2018-05-07T14:50:30.394Z,2.50
2018-05-07T14:52:58.857Z,2.40
2018-05-07T14:55:27.283Z,2.27
2018-05-07T14:57:55.740Z,2.50
2018-05-07T15:00:24.150Z,2.20
2018-05-07T15:02:52.549Z,2.80
2018-05-07T15:05:20.972Z,2.20
2018-05-07T15:07:49.398Z,2.30
2018-05-07T15:10:17.905Z,1.90
2018-05-07T15:12:46.389Z,2.43
2018-05-07T15:15:14.853Z,2.07
2018-05-07T15:17:44.453Z,2.40
2018-05-07T15:20:12.929Z,2.13
2018-05-07T15:22:41.333Z,3.47
2018-05-07T15:25:09.793Z,2.17
2018-05-07T15:27:38.230Z,2.50
2018-05-07T15:30:06.667Z,3.50
2018-05-07T15:32:35.106Z,2.50
2018-05-07T15:35:03.546Z,2.93
2018-05-07T15:37:32.043Z,2.20
2018-05-07T15:40:00.483Z,2.20
2018-05-07T15:42:29.070Z,2.53
2018-05-07T15:44:57.501Z,2.20
2018-05-07T15:47:25.978Z,19.83
2018-05-07T15:49:54.450Z,37.90
2018-05-07T15:52:23.586Z,12.60
2018-05-07T15:54:52.110Z,25.00
2018-05-07T15:57:20.604Z,3.27
2018-05-07T15:59:49.082Z,3.73
2018-05-07T16:02:17.503Z,3.50
2018-05-07T16:04:45.943Z,6.77
2018-05-07T16:07:15.230Z,5.93
2018-05-07T16:09:43.676Z,6.97
2018-05-07T16:12:12.134Z,2.43
2018-05-07T16:14:40.581Z,2.70
2018-05-07T16:17:09.010Z,2.50
2018-05-07T16:19:37.472Z,2.57
2018-05-07T16:22:06.749Z,2.00
2018-05-07T16:24:35.132Z,2.50
2018-05-07T16:27:03.577Z,2.50
2018-05-07T16:29:32.011Z,2.67
2018-05-07T16:32:00.500Z,2.37
2018-05-07T16:34:29.058Z,2.40
2018-05-07T16:36:57.528Z,2.07
2018-05-07T16:39:25.991Z,1.83
2018-05-07T16:41:54.439Z,2.23
2018-05-07T16:44:23.183Z,2.97
2018-05-07T16:46:51.673Z,2.30
2018-05-07T16:49:20.116Z,2.80
2018-05-07T16:51:48.548Z,3.43
2018-05-07T16:54:17.791Z,2.17
2018-05-07T16:56:46.799Z,2.17
2018-05-07T16:59:16.037Z,2.53
2018-05-07T17:01:44.487Z,2.63
2018-05-07T17:04:12.928Z,2.30
2018-05-07T17:06:41.394Z,2.00
2018-05-07T17:09:09.834Z,2.37
2018-05-07T17:11:38.285Z,2.20
2018-05-07T17:14:06.764Z,2.10
2018-05-07T17:16:35.250Z,2.27
2018-05-07T17:19:03.984Z,2.30
2018-05-07T17:21:32.897Z,2.10
2018-05-07T17:24:01.451Z,2.00
2018-05-07T17:26:29.883Z,2.10
2018-05-07T17:28:58.375Z,1.63
2018-05-07T17:31:26.838Z,2.20
2018-05-07T17:33:55.405Z,2.17
2018-05-07T17:36:23.873Z,2.17
2018-05-07T17:38:52.311Z,2.13
2018-05-07T17:41:20.750Z,2.27
2018-05-07T17:43:49.191Z,2.30
2018-05-07T17:46:31.295Z,2.00
2018-05-07T17:48:59.782Z,2.17
2018-05-07T17:51:29.006Z,2.00
2018-05-07T17:53:57.447Z,2.37
2018-05-07T17:56:25.989Z,2.27
2018-05-07T17:58:54.434Z,2.20
2018-05-07T18:01:22.937Z,2.60
2018-05-07T18:03:51.384Z,2.07
2018-05-07T18:06:19.831Z,2.30
2018-05-07T18:08:48.349Z,1.90
2018-05-07T18:11:16.804Z,2.33
2018-05-07T18:13:45.262Z,2.23
2018-05-07T18:16:13.740Z,2.40
2018-05-07T18:18:42.321Z,1.93
2018-05-07T18:21:10.690Z,2.47
2018-05-07T18:23:39.178Z,2.53
2018-05-07T18:26:08.402Z,3.07
2018-05-07T18:28:40.213Z,2.27
2018-05-07T18:31:08.726Z,2.90
2018-05-07T18:33:37.280Z,2.47
2018-05-07T18:36:06.072Z,2.50
2018-05-07T18:38:34.631Z,2.33
2018-05-07T18:41:03.220Z,2.63
2018-05-07T18:43:31.740Z,2.57
2018-05-07T18:46:00.265Z,2.73
2018-05-07T18:48:28.994Z,2.20
2018-05-07T18:50:57.545Z,2.33
2018-05-07T18:53:26.303Z,2.43
2018-05-07T18:55:55.781Z,2.77
2018-05-07T18:58:25.522Z,2.37
2018-05-07T19:00:54.793Z,2.20
2018-05-07T19:03:24.501Z,2.70
2018-05-07T19:05:54.015Z,2.00
2018-05-07T19:08:23.607Z,3.00
2018-05-07T19:10:52.588Z,2.70
2018-05-07T19:13:21.439Z,2.70
2018-05-07T19:15:50.159Z,2.40
2018-05-07T19:18:19.648Z,2.73
2018-05-07T19:20:49.554Z,2.70
2018-05-07T19:23:18.433Z,2.25
2018-05-07T19:25:48.025Z,2.60
2018-05-07T19:28:17.540Z,2.20
2018-05-07T19:30:46.884Z,2.30
2018-05-07T19:33:16.303Z,2.13
2018-05-07T19:35:45.341Z,2.90
2018-05-07T19:38:13.913Z,2.83
2018-05-07T19:40:42.651Z,2.50
2018-05-07T19:43:11.113Z,1.95
2018-05-07T19:45:39.567Z,3.40
2018-05-07T19:48:08.063Z,4.10
2018-05-07T19:50:36.553Z,3.07
2018-05-07T19:53:05.256Z,2.50
2018-05-07T19:55:34.620Z,3.00
2018-05-07T19:58:03.121Z,2.90
2018-05-07T20:00:31.547Z,2.43
2018-05-07T20:03:00.292Z,3.40
2018-05-07T20:05:28.754Z,2.27
2018-05-07T20:07:57.235Z,2.53
2018-05-07T20:10:26.492Z,2.67
2018-05-07T20:12:54.965Z,2.10
2018-05-07T20:15:24.239Z,2.23
2018-05-07T20:17:52.701Z,2.63
2018-05-07T20:20:21.157Z,2.43
2018-05-07T20:22:49.585Z,2.10
2018-05-07T20:25:18.077Z,2.90
2018-05-07T20:27:46.541Z,2.70
2018-05-07T20:30:15.058Z,2.87
2018-05-07T20:32:43.570Z,2.50
2018-05-07T20:35:12.093Z,2.93
2018-05-07T20:37:40.559Z,3.50
2018-05-07T20:40:09.072Z,3.17
2018-05-07T20:42:37.603Z,3.30
2018-05-07T20:45:08.153Z,2.90
2018-05-07T20:47:36.630Z,2.57
2018-05-07T20:50:05.872Z,3.17
2018-05-07T20:52:34.314Z,3.37
2018-05-07T20:55:02.809Z,3.13
2018-05-07T20:57:31.262Z,3.00
2018-05-07T21:00:00.475Z,3.50
2018-05-07T21:02:28.924Z,2.40
2018-05-07T21:05:01.747Z,2.80
2018-05-07T21:07:30.210Z,2.60
2018-05-07T21:09:59.689Z,2.90
2018-05-07T21:12:28.204Z,2.87
2018-05-07T21:14:56.708Z,2.80
2018-05-07T21:17:25.510Z,3.23
2018-05-07T21:19:53.966Z,3.33
2018-05-07T21:22:22.484Z,3.10
2018-05-07T21:24:50.994Z,3.13
2018-05-07T21:27:19.477Z,3.10
2018-05-07T21:29:47.922Z,3.10
2018-05-07T21:32:16.376Z,3.30
2018-05-07T21:34:44.872Z,3.07
2018-05-07T21:37:13.323Z,3.00
2018-05-07T21:39:41.803Z,3.50
2018-05-07T21:42:11.483Z,3.60
2018-05-07T21:44:40.424Z,3.37
2018-05-07T21:47:08.937Z,3.50
2018-05-07T21:49:37.433Z,3.70
2018-05-07T21:52:05.953Z,3.13
2018-05-07T21:54:34.442Z,2.97
2018-05-07T21:57:05.005Z,3.30
2018-05-07T21:59:33.562Z,3.23
2018-05-07T22:02:02.915Z,3.07
2018-05-07T22:04:35.304Z,3.80
2018-05-07T22:07:04.114Z,3.00
2018-05-07T22:09:33.114Z,3.00
2018-05-07T22:12:01.589Z,3.63
2018-05-07T22:14:32.713Z,3.50
2018-05-07T22:17:01.276Z,2.90
2018-05-07T22:19:29.825Z,3.47
2018-05-07T22:21:58.330Z,3.33
2018-05-07T22:24:27.041Z,3.03
2018-05-07T22:26:55.563Z,3.40
2018-05-07T22:29:23.996Z,2.90
2018-05-07T22:31:52.519Z,2.87
2018-05-07T22:34:21.022Z,3.10
2018-05-07T22:36:50.866Z,3.13
2018-05-07T22:39:19.379Z,3.17
2018-05-07T22:41:49.998Z,3.40
2018-05-07T22:44:20.086Z,3.10
2018-05-07T22:46:48.830Z,3.00
2018-05-07T22:49:17.483Z,3.57
2018-05-07T22:51:47.273Z,2.67
2018-05-07T22:54:16.356Z,3.57
2018-05-07T22:56:45.500Z,3.57
2018-05-07T22:59:14.065Z,3.40
2018-05-07T23:01:46.407Z,3.73
2018-05-07T23:04:15.162Z,3.53
2018-05-07T23:06:43.729Z,3.43
2018-05-07T23:09:12.189Z,4.13
2018-05-07T23:11:40.643Z,3.50
2018-05-07T23:14:09.145Z,2.97
2018-05-07T23:16:37.613Z,3.67
2018-05-07T23:19:06.044Z,3.80
2018-05-07T23:21:34.553Z,3.50
2018-05-07T23:24:03.089Z,3.80
2018-05-07T23:26:31.672Z,3.90
2018-05-07T23:29:00.169Z,3.60
2018-05-07T23:31:29.369Z,3.40
2018-05-07T23:33:57.845Z,4.07
2018-05-07T23:36:26.460Z,3.77
2018-05-07T23:38:55.267Z,3.50
2018-05-07T23:41:25.101Z,3.93
2018-05-07T23:43:53.595Z,3.83
2018-05-07T23:46:24.232Z,3.90
2018-05-07T23:48:52.765Z,3.97
2018-05-07T23:51:21.439Z,3.33
2018-05-07T23:53:50.686Z,3.70
2018-05-07T23:56:37.325Z,4.20
2018-05-07T23:59:07.756Z,3.30
